sensor_id;sensor_type;location;lat;lon;timestamp;pressure;altitude;pressure_sealevel;temperature;humidity
41632;BME280;37452;51.938;4.624;2022-10-31T00:01:26;77452.25;;;-142.75;100.00
41632;BME280;37452;51.938;4.624;2022-10-31T00:03:51;77446.34;;;-142.75;100.00
41632;BME280;37452;51.938;4.624;2022-10-31T00:06:17;77448.34;;;-142.75;100.00
41632;BME280;37452;51.938;4.624;2022-10-31T00:08:46;77440.44;;;-142.75;100.00
41632;BME280;37452;51.938;4.624;2022-10-31T00:11:11;77432.56;;;-142.75;100.00
41632;BME280;37452;51.938;4.624;2022-10-31T00:13:36;77440.44;;;-142.75;100.00
41632;BME280;37452;51.938;4.624;2022-10-31T00:16:01;77438.47;;;-142.75;100.00
41632;BME280;37452;51.938;4.624;2022-10-31T00:18:27;77432.56;;;-142.75;100.00
41632;BME280;37452;51.938;4.624;2022-10-31T00:21:02;77436.50;;;-142.75;100.00
41632;BME280;37452;51.938;4.624;2022-10-31T00:23:27;77436.50;;;-142.75;100.00
41632;BME280;37452;51.938;4.624;2022-10-31T00:25:52;77432.56;;;-142.75;100.00
41632;BME280;37452;51.938;4.624;2022-10-31T00:28:18;77426.66;;;-142.75;100.00
41632;BME280;37452;51.938;4.624;2022-10-31T00:30:43;77426.66;;;-142.75;100.00
41632;BME280;37452;51.938;4.624;2022-10-31T00:33:08;77428.63;;;-142.75;100.00
41632;BME280;37452;51.938;4.624;2022-10-31T00:35:33;77438.47;;;-142.75;100.00
41632;BME280;37452;51.938;4.624;2022-10-31T00:37:59;77438.47;;;-142.75;100.00
41632;BME280;37452;51.938;4.624;2022-10-31T00:40:24;77460.13;;;-142.75;100.00
41632;BME280;37452;51.938;4.624;2022-10-31T00:42:49;77458.16;;;-142.75;100.00
41632;BME280;37452;51.938;4.624;2022-10-31T00:45:14;77477.88;;;-142.75;100.00
41632;BME280;37452;51.938;4.624;2022-10-31T00:47:40;77475.91;;;-142.75;100.00
41632;BME280;37452;51.938;4.624;2022-10-31T00:50:05;77487.72;;;-142.75;100.00
41632;BME280;37452;51.938;4.624;2022-10-31T00:52:30;77495.59;;;-142.75;100.00
41632;BME280;37452;51.938;4.624;2022-10-31T00:54:56;77513.31;;;-142.75;100.00
41632;BME280;37452;51.938;4.624;2022-10-31T00:57:21;77515.28;;;-142.75;100.00
41632;BME280;37452;51.938;4.624;2022-10-31T00:59:46;77511.34;;;-142.75;100.00
41632;BME280;37452;51.938;4.624;2022-10-31T01:02:11;77495.59;;;-142.75;100.00
41632;BME280;37452;51.938;4.624;2022-10-31T01:04:36;77487.72;;;-142.75;100.00
41632;BME280;37452;51.938;4.624;2022-10-31T01:07:02;77489.69;;;-142.75;100.00
41632;BME280;37452;51.938;4.624;2022-10-31T01:09:27;77483.78;;;-142.75;100.00
41632;BME280;37452;51.938;4.624;2022-10-31T01:11:52;77495.59;;;-142.75;100.00
41632;BME280;37452;51.938;4.624;2022-10-31T01:14:17;77511.34;;;-142.75;100.00
41632;BME280;37452;51.938;4.624;2022-10-31T01:16:43;77497.56;;;-142.75;100.00
41632;BME280;37452;51.938;4.624;2022-10-31T01:19:08;77493.63;;;-142.75;100.00
41632;BME280;37452;51.938;4.624;2022-10-31T01:21:33;77491.66;;;-142.75;100.00
41632;BME280;37452;51.938;4.624;2022-10-31T01:23:58;77487.72;;;-142.75;100.00
41632;BME280;37452;51.938;4.624;2022-10-31T01:26:28;77499.53;;;-142.75;100.00
41632;BME280;37452;51.938;4.624;2022-10-31T01:28:55;77499.53;;;-142.75;100.00
41632;BME280;37452;51.938;4.624;2022-10-31T01:31:22;77495.59;;;-142.75;100.00
41632;BME280;37452;51.938;4.624;2022-10-31T01:33:48;77495.59;;;-142.75;100.00
41632;BME280;37452;51.938;4.624;2022-10-31T01:36:17;77491.66;;;-142.75;100.00
41632;BME280;37452;51.938;4.624;2022-10-31T01:38:43;77503.47;;;-142.75;100.00
41632;BME280;37452;51.938;4.624;2022-10-31T01:41:08;77495.59;;;-142.75;100.00
41632;BME280;37452;51.938;4.624;2022-10-31T01:43:41;77487.72;;;-142.75;100.00
41632;BME280;37452;51.938;4.624;2022-10-31T01:46:06;77489.69;;;-142.75;100.00
41632;BME280;37452;51.938;4.624;2022-10-31T01:48:31;77491.66;;;-142.75;100.00
41632;BME280;37452;51.938;4.624;2022-10-31T01:50:57;77503.47;;;-142.75;100.00
41632;BME280;37452;51.938;4.624;2022-10-31T01:53:22;77505.44;;;-142.75;100.00
41632;BME280;37452;51.938;4.624;2022-10-31T01:55:48;77507.41;;;-142.75;100.00
41632;BME280;37452;51.938;4.624;2022-10-31T01:58:14;77523.16;;;-142.75;100.00
41632;BME280;37452;51.938;4.624;2022-10-31T02:00:41;77542.84;;;-142.75;100.00
41632;BME280;37452;51.938;4.624;2022-10-31T02:03:08;77554.66;;;-142.75;100.00
41632;BME280;37452;51.938;4.624;2022-10-31T02:05:33;77550.72;;;-142.75;100.00
41632;BME280;37452;51.938;4.624;2022-10-31T02:08:02;77542.84;;;-142.75;100.00
41632;BME280;37452;51.938;4.624;2022-10-31T02:10:30;77536.94;;;-142.75;100.00
41632;BME280;37452;51.938;4.624;2022-10-31T02:12:56;77542.84;;;-142.75;100.00
41632;BME280;37452;51.938;4.624;2022-10-31T02:15:22;77552.69;;;-142.75;100.00
41632;BME280;37452;51.938;4.624;2022-10-31T02:17:48;77544.81;;;-142.75;100.00
41632;BME280;37452;51.938;4.624;2022-10-31T02:20:17;77544.81;;;-142.75;100.00
41632;BME280;37452;51.938;4.624;2022-10-31T02:30:58;77562.53;;;-142.75;100.00
41632;BME280;37452;51.938;4.624;2022-10-31T02:36:04;77560.56;;;-142.75;100.00
41632;BME280;37452;51.938;4.624;2022-10-31T02:38:49;77566.47;;;-142.75;100.00
41632;BME280;37452;51.938;4.624;2022-10-31T02:41:21;77566.47;;;-142.75;100.00
41632;BME280;37452;51.938;4.624;2022-10-31T02:44:08;77558.59;;;-142.75;100.00
41632;BME280;37452;51.938;4.624;2022-10-31T02:46:52;77564.50;;;-142.75;100.00
41632;BME280;37452;51.938;4.624;2022-10-31T02:51:43;77556.63;;;-142.75;100.00
41632;BME280;37452;51.938;4.624;2022-10-31T02:54:19;77564.50;;;-142.75;100.00
41632;BME280;37452;51.938;4.624;2022-10-31T02:56:46;77574.34;;;-142.75;100.00
41632;BME280;37452;51.938;4.624;2022-10-31T02:59:11;77570.41;;;-142.75;100.00
41632;BME280;37452;51.938;4.624;2022-10-31T03:04:16;77570.41;;;-142.75;100.00
41632;BME280;37452;51.938;4.624;2022-10-31T03:09:15;77574.34;;;-142.75;100.00
41632;BME280;37452;51.938;4.624;2022-10-31T03:11:50;77572.38;;;-142.75;100.00
41632;BME280;37452;51.938;4.624;2022-10-31T03:14:23;77572.38;;;-142.75;100.00
41632;BME280;37452;51.938;4.624;2022-10-31T03:16:50;77574.34;;;-142.75;100.00
41632;BME280;37452;51.938;4.624;2022-10-31T03:19:20;77584.19;;;-142.75;100.00
41632;BME280;37452;51.938;4.624;2022-10-31T03:21:50;77576.31;;;-142.75;100.00
41632;BME280;37452;51.938;4.624;2022-10-31T03:24:17;77580.25;;;-142.75;100.00
41632;BME280;37452;51.938;4.624;2022-10-31T03:26:46;77601.91;;;-142.75;100.00
41632;BME280;37452;51.938;4.624;2022-10-31T03:29:13;77611.75;;;-142.75;100.00
41632;BME280;37452;51.938;4.624;2022-10-31T03:31:44;77619.63;;;-142.75;100.00
41632;BME280;37452;51.938;4.624;2022-10-31T03:34:11;77621.59;;;-142.75;100.00
41632;BME280;37452;51.938;4.624;2022-10-31T03:36:37;77639.31;;;-142.75;100.00
41632;BME280;37452;51.938;4.624;2022-10-31T03:39:04;77637.34;;;-142.75;100.00
41632;BME280;37452;51.938;4.624;2022-10-31T03:41:32;77637.34;;;-142.75;100.00
41632;BME280;37452;51.938;4.624;2022-10-31T03:44:02;77649.16;;;-142.75;100.00
41632;BME280;37452;51.938;4.624;2022-10-31T03:46:29;77660.97;;;-142.75;100.00
41632;BME280;37452;51.938;4.624;2022-10-31T03:48:55;77672.78;;;-142.75;100.00
41632;BME280;37452;51.938;4.624;2022-10-31T03:54:08;77694.44;;;-142.75;100.00
41632;BME280;37452;51.938;4.624;2022-10-31T03:56:35;77684.59;;;-142.75;100.00
41632;BME280;37452;51.938;4.624;2022-10-31T03:59:02;77723.97;;;-142.75;100.00
41632;BME280;37452;51.938;4.624;2022-10-31T04:01:31;77720.03;;;-142.75;100.00
41632;BME280;37452;51.938;4.624;2022-10-31T04:03:57;77733.84;;;-142.75;100.00
41632;BME280;37452;51.938;4.624;2022-10-31T04:06:23;77763.38;;;-142.75;100.00
41632;BME280;37452;51.938;4.624;2022-10-31T04:08:51;77767.31;;;-142.75;100.00
41632;BME280;37452;51.938;4.624;2022-10-31T04:11:19;77787.00;;;-142.75;100.00
41632;BME280;37452;51.938;4.624;2022-10-31T04:13:46;77818.50;;;-142.75;100.00
41632;BME280;37452;51.938;4.624;2022-10-31T04:16:13;77826.38;;;-142.75;100.00
41632;BME280;37452;51.938;4.624;2022-10-31T04:18:40;77834.25;;;-142.75;100.00
41632;BME280;37452;51.938;4.624;2022-10-31T04:21:06;77834.25;;;-142.75;100.00
41632;BME280;37452;51.938;4.624;2022-10-31T04:23:31;77840.16;;;-142.75;100.00
41632;BME280;37452;51.938;4.624;2022-10-31T04:25:57;77842.13;;;-142.75;100.00
41632;BME280;37452;51.938;4.624;2022-10-31T04:28:22;77842.13;;;-142.75;100.00
41632;BME280;37452;51.938;4.624;2022-10-31T04:30:48;77838.19;;;-142.75;100.00
41632;BME280;37452;51.938;4.624;2022-10-31T04:33:13;77848.03;;;-142.75;100.00
41632;BME280;37452;51.938;4.624;2022-10-31T04:35:38;77824.41;;;-142.75;100.00
41632;BME280;37452;51.938;4.624;2022-10-31T04:38:03;77814.56;;;-142.75;100.00
41632;BME280;37452;51.938;4.624;2022-10-31T04:40:28;77814.56;;;-142.75;100.00
41632;BME280;37452;51.938;4.624;2022-10-31T04:42:54;77810.63;;;-142.75;100.00
41632;BME280;37452;51.938;4.624;2022-10-31T04:45:19;77802.75;;;-142.75;100.00
41632;BME280;37452;51.938;4.624;2022-10-31T04:47:44;77814.56;;;-142.75;100.00
41632;BME280;37452;51.938;4.624;2022-10-31T04:50:09;77812.59;;;-142.75;100.00
41632;BME280;37452;51.938;4.624;2022-10-31T04:52:41;77810.63;;;-142.75;100.00
41632;BME280;37452;51.938;4.624;2022-10-31T04:55:06;77832.28;;;-142.75;100.00
41632;BME280;37452;51.938;4.624;2022-10-31T04:57:32;77853.94;;;-142.75;100.00
41632;BME280;37452;51.938;4.624;2022-10-31T04:59:57;77848.03;;;-142.75;100.00
41632;BME280;37452;51.938;4.624;2022-10-31T05:02:22;77830.31;;;-142.75;100.00
41632;BME280;37452;51.938;4.624;2022-10-31T05:04:47;77834.25;;;-142.75;100.00
41632;BME280;37452;51.938;4.624;2022-10-31T05:07:12;77846.06;;;-142.75;100.00
41632;BME280;37452;51.938;4.624;2022-10-31T05:09:38;77848.03;;;-142.75;100.00
41632;BME280;37452;51.938;4.624;2022-10-31T05:12:03;77838.19;;;-142.75;100.00
41632;BME280;37452;51.938;4.624;2022-10-31T05:14:28;77832.28;;;-142.75;100.00
41632;BME280;37452;51.938;4.624;2022-10-31T05:16:53;77818.50;;;-142.75;100.00
41632;BME280;37452;51.938;4.624;2022-10-31T05:19:18;77806.69;;;-142.75;100.00
41632;BME280;37452;51.938;4.624;2022-10-31T05:21:44;77810.63;;;-142.75;100.00
41632;BME280;37452;51.938;4.624;2022-10-31T05:24:09;77802.75;;;-142.75;100.00
41632;BME280;37452;51.938;4.624;2022-10-31T05:26:34;77788.97;;;-142.75;100.00
41632;BME280;37452;51.938;4.624;2022-10-31T05:28:59;77785.03;;;-142.75;100.00
41632;BME280;37452;51.938;4.624;2022-10-31T05:31:24;77787.00;;;-142.75;100.00
41632;BME280;37452;51.938;4.624;2022-10-31T05:33:50;77792.91;;;-142.75;100.00
41632;BME280;37452;51.938;4.624;2022-10-31T05:36:15;77777.16;;;-142.75;100.00
41632;BME280;37452;51.938;4.624;2022-10-31T05:38:40;77775.19;;;-142.75;100.00
41632;BME280;37452;51.938;4.624;2022-10-31T05:41:05;77779.13;;;-142.75;100.00
41632;BME280;37452;51.938;4.624;2022-10-31T05:43:30;77775.19;;;-142.75;100.00
41632;BME280;37452;51.938;4.624;2022-10-31T05:45:56;77769.28;;;-142.75;100.00
41632;BME280;37452;51.938;4.624;2022-10-31T05:48:21;77767.31;;;-142.75;100.00
41632;BME280;37452;51.938;4.624;2022-10-31T05:50:47;77767.31;;;-142.75;100.00
41632;BME280;37452;51.938;4.624;2022-10-31T05:53:12;77769.28;;;-142.75;100.00
41632;BME280;37452;51.938;4.624;2022-10-31T05:55:38;77779.13;;;-142.75;100.00
41632;BME280;37452;51.938;4.624;2022-10-31T05:58:04;77775.19;;;-142.75;100.00
41632;BME280;37452;51.938;4.624;2022-10-31T06:00:29;77787.00;;;-142.75;100.00
41632;BME280;37452;51.938;4.624;2022-10-31T06:03:01;77779.13;;;-142.75;100.00
41632;BME280;37452;51.938;4.624;2022-10-31T06:05:27;77765.34;;;-142.75;100.00
41632;BME280;37452;51.938;4.624;2022-10-31T06:07:52;77765.34;;;-142.75;100.00
41632;BME280;37452;51.938;4.624;2022-10-31T06:10:18;77767.31;;;-142.75;100.00
41632;BME280;37452;51.938;4.624;2022-10-31T06:12:44;77763.38;;;-142.75;100.00
41632;BME280;37452;51.938;4.624;2022-10-31T06:15:09;77773.22;;;-142.75;100.00
41632;BME280;37452;51.938;4.624;2022-10-31T06:17:35;77779.13;;;-142.75;100.00
41632;BME280;37452;51.938;4.624;2022-10-31T06:20:00;77783.06;;;-142.75;100.00
41632;BME280;37452;51.938;4.624;2022-10-31T06:22:25;77787.00;;;-142.75;100.00
41632;BME280;37452;51.938;4.624;2022-10-31T06:24:51;77802.75;;;-142.75;100.00
41632;BME280;37452;51.938;4.624;2022-10-31T06:27:16;77792.91;;;-142.75;100.00
41632;BME280;37452;51.938;4.624;2022-10-31T06:29:41;77812.59;;;-142.75;100.00
41632;BME280;37452;51.938;4.624;2022-10-31T06:32:09;77810.63;;;-142.75;100.00
41632;BME280;37452;51.938;4.624;2022-10-31T06:34:34;77822.44;;;-142.75;100.00
41632;BME280;37452;51.938;4.624;2022-10-31T06:36:59;77832.28;;;-142.75;100.00
41632;BME280;37452;51.938;4.624;2022-10-31T06:39:24;77846.06;;;-142.75;100.00
41632;BME280;37452;51.938;4.624;2022-10-31T06:41:50;77857.88;;;-142.75;100.00
41632;BME280;37452;51.938;4.624;2022-10-31T06:44:15;77861.81;;;-142.75;100.00
41632;BME280;37452;51.938;4.624;2022-10-31T06:46:40;77873.63;;;-142.75;100.00
41632;BME280;37452;51.938;4.624;2022-10-31T06:49:05;77869.69;;;-142.75;100.00
41632;BME280;37452;51.938;4.624;2022-10-31T06:51:30;77865.75;;;-142.75;100.00
41632;BME280;37452;51.938;4.624;2022-10-31T06:53:56;77848.03;;;-142.75;100.00
41632;BME280;37452;51.938;4.624;2022-10-31T06:56:21;77840.16;;;-142.75;100.00
41632;BME280;37452;51.938;4.624;2022-10-31T06:58:46;77836.22;;;-142.75;100.00
41632;BME280;37452;51.938;4.624;2022-10-31T07:01:11;77838.19;;;-142.75;100.00
41632;BME280;37452;51.938;4.624;2022-10-31T07:03:36;77848.03;;;-142.75;100.00
41632;BME280;37452;51.938;4.624;2022-10-31T07:06:02;77865.75;;;-142.75;100.00
41632;BME280;37452;51.938;4.624;2022-10-31T07:08:27;77853.94;;;-142.75;100.00
41632;BME280;37452;51.938;4.624;2022-10-31T07:10:55;77861.81;;;-142.75;100.00
41632;BME280;37452;51.938;4.624;2022-10-31T07:13:21;77848.03;;;-142.75;100.00
41632;BME280;37452;51.938;4.624;2022-10-31T07:15:50;77850.00;;;-142.75;100.00
41632;BME280;37452;51.938;4.624;2022-10-31T07:18:16;77828.34;;;-142.75;100.00
41632;BME280;37452;51.938;4.624;2022-10-31T07:20:41;77820.47;;;-142.75;100.00
41632;BME280;37452;51.938;4.624;2022-10-31T07:23:07;77814.56;;;-142.75;100.00
41632;BME280;37452;51.938;4.624;2022-10-31T07:25:32;77806.69;;;-142.75;100.00
41632;BME280;37452;51.938;4.624;2022-10-31T07:27:57;77802.75;;;-142.75;100.00
41632;BME280;37452;51.938;4.624;2022-10-31T07:30:22;77798.81;;;-142.75;100.00
41632;BME280;37452;51.938;4.624;2022-10-31T07:32:48;77790.94;;;-142.75;100.00
41632;BME280;37452;51.938;4.624;2022-10-31T07:35:15;77787.00;;;-142.75;100.00
41632;BME280;37452;51.938;4.624;2022-10-31T07:37:41;77794.88;;;-142.75;100.00
41632;BME280;37452;51.938;4.624;2022-10-31T07:40:07;77788.97;;;-142.75;100.00
41632;BME280;37452;51.938;4.624;2022-10-31T07:42:36;77790.94;;;-142.75;100.00
41632;BME280;37452;51.938;4.624;2022-10-31T07:45:02;77790.94;;;-142.75;100.00
41632;BME280;37452;51.938;4.624;2022-10-31T07:47:27;77775.19;;;-142.75;100.00
41632;BME280;37452;51.938;4.624;2022-10-31T07:49:53;77785.03;;;-142.75;100.00
41632;BME280;37452;51.938;4.624;2022-10-31T07:52:18;77779.13;;;-142.75;100.00
41632;BME280;37452;51.938;4.624;2022-10-31T07:54:43;77787.00;;;-142.75;100.00
41632;BME280;37452;51.938;4.624;2022-10-31T07:57:08;77788.97;;;-142.75;100.00
41632;BME280;37452;51.938;4.624;2022-10-31T07:59:33;77794.88;;;-142.75;100.00
41632;BME280;37452;51.938;4.624;2022-10-31T08:01:59;77785.03;;;-142.75;100.00
41632;BME280;37452;51.938;4.624;2022-10-31T08:04:24;77787.00;;;-142.75;100.00
41632;BME280;37452;51.938;4.624;2022-10-31T08:06:49;77792.91;;;-142.75;100.00
41632;BME280;37452;51.938;4.624;2022-10-31T08:09:14;77787.00;;;-142.75;100.00
41632;BME280;37452;51.938;4.624;2022-10-31T08:11:39;77787.00;;;-142.75;100.00
41632;BME280;37452;51.938;4.624;2022-10-31T08:14:05;77775.19;;;-142.75;100.00
41632;BME280;37452;51.938;4.624;2022-10-31T08:16:30;77775.19;;;-142.75;100.00
41632;BME280;37452;51.938;4.624;2022-10-31T08:18:55;77771.25;;;-142.75;100.00
41632;BME280;37452;51.938;4.624;2022-10-31T08:21:21;77771.25;;;-142.75;100.00
41632;BME280;37452;51.938;4.624;2022-10-31T08:24:56;77769.28;;;-142.75;100.00
41632;BME280;37452;51.938;4.624;2022-10-31T08:27:22;77771.25;;;-142.75;100.00
41632;BME280;37452;51.938;4.624;2022-10-31T08:29:47;77755.50;;;-142.75;100.00
41632;BME280;37452;51.938;4.624;2022-10-31T08:32:13;77743.69;;;-142.75;100.00
41632;BME280;37452;51.938;4.624;2022-10-31T08:34:38;77751.56;;;-142.75;100.00
41632;BME280;37452;51.938;4.624;2022-10-31T08:37:04;77737.78;;;-142.75;100.00
41632;BME280;37452;51.938;4.624;2022-10-31T08:39:29;77731.88;;;-142.75;100.00
41632;BME280;37452;51.938;4.624;2022-10-31T08:41:54;77723.97;;;-142.75;100.00
41632;BME280;37452;51.938;4.624;2022-10-31T08:44:19;77718.06;;;-142.75;100.00
41632;BME280;37452;51.938;4.624;2022-10-31T08:46:45;77708.22;;;-142.75;100.00
41632;BME280;37452;51.938;4.624;2022-10-31T08:49:10;77686.56;;;-142.75;100.00
41632;BME280;37452;51.938;4.624;2022-10-31T08:51:35;77649.16;;;-142.75;100.00
41632;BME280;37452;51.938;4.624;2022-10-31T08:54:01;77603.88;;;-142.75;100.00
41632;BME280;37452;51.938;4.624;2022-10-31T08:56:26;77568.44;;;-142.75;100.00
41632;BME280;37452;51.938;4.624;2022-10-31T08:58:53;77536.94;;;-142.75;100.00
41632;BME280;37452;51.938;4.624;2022-10-31T09:01:18;77515.28;;;-142.75;100.00
41632;BME280;37452;51.938;4.624;2022-10-31T09:03:44;77487.72;;;-142.75;100.00
41632;BME280;37452;51.938;4.624;2022-10-31T09:06:09;77477.88;;;-142.75;100.00
41632;BME280;37452;51.938;4.624;2022-10-31T09:08:35;77434.53;;;-142.75;100.00
41632;BME280;37452;51.938;4.624;2022-10-31T09:11:01;77418.78;;;-142.75;100.00
41632;BME280;37452;51.938;4.624;2022-10-31T09:13:27;77397.13;;;-142.75;100.00
41632;BME280;37452;51.938;4.624;2022-10-31T09:15:52;77383.34;;;-142.75;100.00
41632;BME280;37452;51.938;4.624;2022-10-31T09:18:21;77373.50;;;-142.75;100.00
41632;BME280;37452;51.938;4.624;2022-10-31T09:20:47;77379.41;;;-142.75;100.00
41632;BME280;37452;51.938;4.624;2022-10-31T09:23:15;77363.66;;;-142.75;100.00
41632;BME280;37452;51.938;4.624;2022-10-31T09:25:41;77342.00;;;-142.75;100.00
41632;BME280;37452;51.938;4.624;2022-10-31T09:28:08;77322.31;;;-142.75;100.00
41632;BME280;37452;51.938;4.624;2022-10-31T09:30:35;77302.63;;;-142.75;100.00
41632;BME280;37452;51.938;4.624;2022-10-31T09:33:03;77292.78;;;-142.75;100.00
41632;BME280;37452;51.938;4.624;2022-10-31T09:35:29;77290.81;;;-142.75;100.00
41632;BME280;37452;51.938;4.624;2022-10-31T09:37:59;77282.94;;;-142.75;100.00
41632;BME280;37452;51.938;4.624;2022-10-31T09:40:32;77265.22;;;-142.75;100.00
41632;BME280;37452;51.938;4.624;2022-10-31T09:46:13;77275.06;;;-142.75;100.00
41632;BME280;37452;51.938;4.624;2022-10-31T09:51:34;77282.94;;;-142.75;100.00
41632;BME280;37452;51.938;4.624;2022-10-31T09:54:10;77277.03;;;-142.75;100.00
41632;BME280;37452;51.938;4.624;2022-10-31T09:56:37;77265.22;;;-142.75;100.00
41632;BME280;37452;51.938;4.624;2022-10-31T09:59:03;77259.31;;;-142.75;100.00
41632;BME280;37452;51.938;4.624;2022-10-31T10:01:53;77255.38;;;-142.75;100.00
41632;BME280;37452;51.938;4.624;2022-10-31T10:07:25;77241.59;;;-142.75;100.00
41632;BME280;37452;51.938;4.624;2022-10-31T10:09:53;77229.78;;;-142.75;100.00
41632;BME280;37452;51.938;4.624;2022-10-31T10:12:33;77206.16;;;-142.75;100.00
41632;BME280;37452;51.938;4.624;2022-10-31T10:17:54;77174.66;;;-142.75;100.00
41632;BME280;37452;51.938;4.624;2022-10-31T10:20:58;77154.97;;;-142.75;100.00
41632;BME280;37452;51.938;4.624;2022-10-31T10:28:38;77086.06;;;-142.75;100.00
41632;BME280;37452;51.938;4.624;2022-10-31T10:31:11;77013.22;;;-142.75;100.00
41632;BME280;37452;51.938;4.624;2022-10-31T10:33:42;76973.84;;;-142.75;100.00
41632;BME280;37452;51.938;4.624;2022-10-31T10:36:18;76916.75;;;-142.75;100.00
41632;BME280;37452;51.938;4.624;2022-10-31T10:38:55;76838.00;;;-142.75;100.00
41632;BME280;37452;51.938;4.624;2022-10-31T10:41:24;76810.44;;;-142.75;100.00
41632;BME280;37452;51.938;4.624;2022-10-31T10:43:53;76849.81;;;-142.75;100.00
41632;BME280;37452;51.938;4.624;2022-10-31T10:46:41;76895.09;;;-142.75;100.00
41632;BME280;37452;51.938;4.624;2022-10-31T10:49:32;76940.38;;;-142.75;100.00
41632;BME280;37452;51.938;4.624;2022-10-31T10:52:07;76960.06;;;-142.75;100.00
41632;BME280;37452;51.938;4.624;2022-10-31T11:00:28;76987.63;;;-142.75;100.00
41632;BME280;37452;51.938;4.624;2022-10-31T11:02:54;77013.22;;;-142.75;100.00
41632;BME280;37452;51.938;4.624;2022-10-31T11:05:23;77034.88;;;-142.75;100.00
41632;BME280;37452;51.938;4.624;2022-10-31T11:07:48;77050.63;;;-142.75;100.00
41632;BME280;37452;51.938;4.624;2022-10-31T11:10:15;77048.66;;;-142.75;100.00
41632;BME280;37452;51.938;4.624;2022-10-31T11:12:44;77050.63;;;-142.75;100.00
41632;BME280;37452;51.938;4.624;2022-10-31T11:15:22;77060.47;;;-142.75;100.00
41632;BME280;37452;51.938;4.624;2022-10-31T11:17:51;77072.28;;;-142.75;100.00
41632;BME280;37452;51.938;4.624;2022-10-31T11:22:44;77052.59;;;-142.75;100.00
41632;BME280;37452;51.938;4.624;2022-10-31T11:27:45;77050.63;;;-142.75;100.00
41632;BME280;37452;51.938;4.624;2022-10-31T11:30:12;77036.84;;;-142.75;100.00
41632;BME280;37452;51.938;4.624;2022-10-31T11:32:49;77034.88;;;-142.75;100.00
41632;BME280;37452;51.938;4.624;2022-10-31T11:35:18;77038.81;;;-142.75;100.00
41632;BME280;37452;51.938;4.624;2022-10-31T11:37:47;77007.31;;;-142.75;100.00
41632;BME280;37452;51.938;4.624;2022-10-31T11:40:22;76999.44;;;-142.75;100.00
41632;BME280;37452;51.938;4.624;2022-10-31T11:42:48;76985.66;;;-142.75;100.00
41632;BME280;37452;51.938;4.624;2022-10-31T11:45:32;76979.75;;;-142.75;100.00
41632;BME280;37452;51.938;4.624;2022-10-31T11:48:00;76967.94;;;-142.75;100.00
41632;BME280;37452;51.938;4.624;2022-10-31T11:50:27;76975.81;;;-142.75;100.00
41632;BME280;37452;51.938;4.624;2022-10-31T11:52:54;76964.00;;;-142.75;100.00
41632;BME280;37452;51.938;4.624;2022-10-31T11:55:36;76960.06;;;-142.75;100.00
41632;BME280;37452;51.938;4.624;2022-10-31T11:58:02;76948.25;;;-142.75;100.00
41632;BME280;37452;51.938;4.624;2022-10-31T12:00:36;76938.41;;;-142.75;100.00
41632;BME280;37452;51.938;4.624;2022-10-31T12:05:37;76889.19;;;-142.75;100.00
41632;BME280;37452;51.938;4.624;2022-10-31T12:08:08;76873.44;;;-142.75;100.00
41632;BME280;37452;51.938;4.624;2022-10-31T12:11:08;76851.78;;;-142.75;100.00
41632;BME280;37452;51.938;4.624;2022-10-31T12:21:58;76794.69;;;-142.75;100.00
41632;BME280;37452;51.938;4.624;2022-10-31T12:24:45;76784.88;;;-142.75;100.00
41632;BME280;37452;51.938;4.624;2022-10-31T12:27:49;76780.94;;;-142.75;100.00
41632;BME280;37452;51.938;4.624;2022-10-31T12:30:40;76763.22;;;-142.75;100.00
41632;BME280;37452;51.938;4.624;2022-10-31T12:33:27;76753.38;;;-142.75;100.00
41632;BME280;37452;51.938;4.624;2022-10-31T12:36:34;76763.22;;;-142.75;100.00
41632;BME280;37452;51.938;4.624;2022-10-31T12:44:59;76739.59;;;-142.75;100.00
41632;BME280;37452;51.938;4.624;2022-10-31T12:59:06;76723.84;;;-142.75;100.00
41632;BME280;37452;51.938;4.624;2022-10-31T13:04:05;76708.09;;;-142.75;100.00
41632;BME280;37452;51.938;4.624;2022-10-31T13:06:48;76712.03;;;-142.75;100.00
41632;BME280;37452;51.938;4.624;2022-10-31T13:12:08;76704.16;;;-142.75;100.00
41632;BME280;37452;51.938;4.624;2022-10-31T13:14:41;76708.09;;;-142.75;100.00
41632;BME280;37452;51.938;4.624;2022-10-31T13:17:20;76706.13;;;-142.75;100.00
41632;BME280;37452;51.938;4.624;2022-10-31T13:19:47;76715.97;;;-142.75;100.00
41632;BME280;37452;51.938;4.624;2022-10-31T13:22:20;76704.16;;;-142.75;100.00
41632;BME280;37452;51.938;4.624;2022-10-31T13:27:27;76719.91;;;-142.75;100.00
41632;BME280;37452;51.938;4.624;2022-10-31T13:30:01;76715.97;;;-142.75;100.00
41632;BME280;37452;51.938;4.624;2022-10-31T13:32:36;76708.09;;;-142.75;100.00
41632;BME280;37452;51.938;4.624;2022-10-31T13:35:04;76719.91;;;-142.75;100.00
41632;BME280;37452;51.938;4.624;2022-10-31T13:37:41;76715.97;;;-142.75;100.00
41632;BME280;37452;51.938;4.624;2022-10-31T13:40:38;76700.22;;;-142.75;100.00
41632;BME280;37452;51.938;4.624;2022-10-31T13:43:22;76692.34;;;-142.75;100.00
41632;BME280;37452;51.938;4.624;2022-10-31T13:45:51;76688.41;;;-142.75;100.00
41632;BME280;37452;51.938;4.624;2022-10-31T13:48:31;76670.69;;;-142.75;100.00
41632;BME280;37452;51.938;4.624;2022-10-31T13:51:07;76674.63;;;-142.75;100.00
41632;BME280;37452;51.938;4.624;2022-10-31T13:53:56;76672.66;;;-142.75;100.00
41632;BME280;37452;51.938;4.624;2022-10-31T13:56:33;76660.84;;;-142.75;100.00
41632;BME280;37452;51.938;4.624;2022-10-31T13:59:00;76660.84;;;-142.75;100.00
41632;BME280;37452;51.938;4.624;2022-10-31T14:01:26;76660.84;;;-142.75;100.00
41632;BME280;37452;51.938;4.624;2022-10-31T14:04:36;76652.97;;;-142.75;100.00